createdAt,value
2022-12-15T00:00:18.680Z,8.90
2022-12-15T00:03:04.047Z,9.43
2022-12-15T00:05:55.569Z,8.57
2022-12-15T00:08:40.958Z,8.73
2022-12-15T00:11:32.769Z,9.05
2022-12-15T00:14:18.089Z,10.43
2022-12-15T00:17:16.865Z,10.13
2022-12-15T00:20:13.608Z,10.38
2022-12-15T00:23:02.093Z,10.57
2022-12-15T00:25:54.826Z,9.55
2022-12-15T00:28:42.151Z,10.05
2022-12-15T00:31:34.708Z,9.68
2022-12-15T00:37:16.055Z,8.80
2022-12-15T00:39:49.750Z,9.57
2022-12-15T00:42:16.529Z,9.43
2022-12-15T00:44:43.288Z,9.95
2022-12-15T00:47:16.886Z,9.90
2022-12-15T00:50:02.151Z,9.90
2022-12-15T00:56:00.780Z,10.30
2022-12-15T00:58:52.713Z,10.75
2022-12-15T01:01:38.403Z,11.05
2022-12-15T01:04:30.758Z,10.27
2022-12-15T01:07:16.185Z,11.23
2022-12-15T01:10:07.654Z,10.98
2022-12-15T01:12:53.313Z,11.98
2022-12-15T01:15:44.736Z,11.57
2022-12-15T01:18:30.518Z,10.70
2022-12-15T01:21:08.639Z,10.18
2022-12-15T01:23:36.653Z,9.68
2022-12-15T01:26:12.799Z,10.60
2022-12-15T01:28:39.618Z,11.70
2022-12-15T01:31:19.748Z,11.35
2022-12-15T01:33:47.326Z,12.82
2022-12-15T01:36:14.269Z,12.27
2022-12-15T01:38:53.681Z,10.73
2022-12-15T01:41:21.013Z,10.95
2022-12-15T01:43:54.713Z,12.10
2022-12-15T01:46:29.711Z,10.73
2022-12-15T01:49:13.535Z,10.27
2022-12-15T01:51:51.690Z,9.57
2022-12-15T01:54:29.803Z,10.38
2022-12-15T01:57:03.089Z,10.90
2022-12-15T01:59:41.766Z,10.15
2022-12-15T02:02:08.910Z,9.82
2022-12-15T02:04:37.875Z,10.55
2022-12-15T02:07:12.957Z,12.38
2022-12-15T02:09:40.915Z,13.30
2022-12-15T02:12:32.004Z,12.18
2022-12-15T02:15:17.508Z,12.73
2022-12-15T02:18:25.750Z,13.52
2022-12-15T02:21:19.087Z,12.70
2022-12-15T02:23:57.743Z,12.40
2022-12-15T02:26:47.050Z,13.45
2022-12-15T02:29:29.875Z,11.85
2022-12-15T02:32:11.176Z,11.45
2022-12-15T02:34:52.020Z,10.27
2022-12-15T02:37:33.193Z,10.45
2022-12-15T02:40:07.779Z,10.52
2022-12-15T02:42:38.910Z,10.70
2022-12-15T02:45:20.135Z,10.63
2022-12-15T02:48:05.719Z,13.10
2022-12-15T02:51:13.828Z,10.90
2022-12-15T02:54:06.092Z,10.77
2022-12-15T02:56:55.829Z,9.52
2022-12-15T02:59:34.047Z,10.40
2022-12-15T03:02:13.903Z,9.75
2022-12-15T03:04:43.102Z,9.82
2022-12-15T03:07:18.087Z,10.20
2022-12-15T03:09:44.985Z,10.20
2022-12-15T03:12:11.754Z,10.73
2022-12-15T03:14:46.816Z,11.32
2022-12-15T03:17:13.638Z,10.25
2022-12-15T03:19:40.419Z,9.27
2022-12-15T03:22:14.055Z,9.93
2022-12-15T03:24:40.873Z,9.30
2022-12-15T03:27:07.732Z,9.88
2022-12-15T03:29:40.884Z,9.30
2022-12-15T03:32:08.352Z,9.95
2022-12-15T03:34:35.174Z,9.10
2022-12-15T03:37:13.110Z,9.35
2022-12-15T03:39:39.914Z,9.30
2022-12-15T03:42:07.671Z,8.93
2022-12-15T03:44:40.863Z,8.85
2022-12-15T03:47:07.668Z,9.77
2022-12-15T03:49:34.560Z,9.93
2022-12-15T03:52:07.912Z,11.27
2022-12-15T03:54:34.699Z,9.73
2022-12-15T03:57:07.990Z,9.68
2022-12-15T03:59:34.733Z,9.82
2022-12-15T04:02:01.649Z,9.48
2022-12-15T04:04:40.884Z,9.00
2022-12-15T04:07:07.640Z,8.52
2022-12-15T04:09:40.879Z,9.65
2022-12-15T04:12:10.748Z,10.05
2022-12-15T04:14:49.554Z,10.50
2022-12-15T04:17:16.730Z,9.07
2022-12-15T04:20:14.937Z,10.90
2022-12-15T04:22:53.500Z,9.68
2022-12-15T04:25:48.206Z,9.68
2022-12-15T04:28:39.657Z,9.60
2022-12-15T04:31:42.961Z,9.40
2022-12-15T04:34:35.031Z,9.43
2022-12-15T04:37:26.920Z,8.70
2022-12-15T04:40:13.700Z,8.57
2022-12-15T04:43:09.096Z,9.63
2022-12-15T04:45:54.601Z,9.10
2022-12-15T04:48:47.113Z,8.88
2022-12-15T04:51:32.600Z,9.45
2022-12-15T04:54:24.969Z,10.38
2022-12-15T04:57:10.465Z,9.93
2022-12-15T05:00:02.182Z,10.55
2022-12-15T05:02:47.596Z,10.20
2022-12-15T05:05:42.022Z,10.25
2022-12-15T05:08:27.304Z,10.02
2022-12-15T05:11:19.089Z,9.65
2022-12-15T05:14:04.847Z,8.00
2022-12-15T05:16:57.065Z,10.20
2022-12-15T05:19:49.007Z,10.05
2022-12-15T05:22:38.369Z,11.80
2022-12-15T05:25:36.000Z,11.50
2022-12-15T05:28:24.925Z,11.65
2022-12-15T05:31:17.059Z,11.25
2022-12-15T05:33:54.323Z,10.07
2022-12-15T05:36:29.990Z,9.40
2022-12-15T05:38:56.739Z,11.15
2022-12-15T05:41:30.173Z,9.75
2022-12-15T05:43:56.929Z,8.73
2022-12-15T05:46:37.233Z,9.70
2022-12-15T05:49:09.354Z,9.10
2022-12-15T05:51:47.065Z,8.80
2022-12-15T05:54:16.744Z,9.90
2022-12-15T05:56:43.616Z,8.80
2022-12-15T05:59:17.340Z,9.50
2022-12-15T06:01:44.287Z,9.52
2022-12-15T06:04:14.640Z,9.40
2022-12-15T06:06:55.124Z,11.00
2022-12-15T06:09:22.117Z,9.98
2022-12-15T06:11:48.928Z,10.18
2022-12-15T06:14:22.082Z,9.75
2022-12-15T06:16:50.791Z,9.05
2022-12-15T06:19:19.758Z,9.45
2022-12-15T06:21:53.248Z,10.18
2022-12-15T06:24:20.031Z,10.43
2022-12-15T06:26:54.060Z,10.10
2022-12-15T06:29:20.984Z,10.13
2022-12-15T06:31:48.145Z,10.02
2022-12-15T06:34:23.106Z,9.50
2022-12-15T06:36:55.230Z,9.73
2022-12-15T06:39:22.188Z,9.23
2022-12-15T06:41:55.147Z,9.45
2022-12-15T06:44:22.297Z,10.10
2022-12-15T06:46:55.336Z,11.30
2022-12-15T06:49:22.188Z,9.90
2022-12-15T06:51:50.069Z,9.75
2022-12-15T06:54:24.380Z,9.65
2022-12-15T06:56:54.625Z,9.30
2022-12-15T06:59:21.360Z,9.05
2022-12-15T07:01:55.293Z,9.43
2022-12-15T07:04:25.788Z,9.68
2022-12-15T07:06:52.665Z,9.73
2022-12-15T07:09:27.164Z,10.68
2022-12-15T07:12:01.151Z,9.93
2022-12-15T07:14:28.170Z,9.63
2022-12-15T07:16:54.915Z,10.35
2022-12-15T07:19:28.307Z,9.02
2022-12-15T07:22:01.488Z,10.68
2022-12-15T07:24:35.157Z,11.88
2022-12-15T07:27:02.046Z,9.20
2022-12-15T07:29:35.180Z,10.20
2022-12-15T07:32:02.036Z,11.25
2022-12-15T07:34:29.207Z,9.65
2022-12-15T07:37:02.234Z,13.07
2022-12-15T07:39:29.126Z,12.07
2022-12-15T07:41:55.940Z,12.38
2022-12-15T07:44:29.384Z,11.52
2022-12-15T07:46:56.190Z,11.73
2022-12-15T07:49:23.399Z,10.20
2022-12-15T07:52:05.496Z,11.57
2022-12-15T07:54:32.510Z,10.60
2022-12-15T07:57:04.671Z,8.95
2022-12-15T07:59:38.237Z,9.65
2022-12-15T08:02:13.391Z,9.88
2022-12-15T08:04:40.773Z,9.85
2022-12-15T08:07:17.322Z,11.63
2022-12-15T08:09:44.129Z,10.75
2022-12-15T08:12:11.031Z,10.52
2022-12-15T08:14:44.561Z,12.48
2022-12-15T08:17:17.925Z,9.15
2022-12-15T08:19:54.475Z,9.57
2022-12-15T08:22:24.789Z,9.70
2022-12-15T08:24:58.294Z,9.32
2022-12-15T08:27:27.230Z,9.20
2022-12-15T08:29:54.748Z,9.30
2022-12-15T08:32:29.302Z,8.88
2022-12-15T08:34:56.105Z,8.45
2022-12-15T08:37:29.300Z,8.95
2022-12-15T08:39:56.132Z,9.35
2022-12-15T08:42:29.563Z,11.13
2022-12-15T08:44:56.348Z,14.75
2022-12-15T08:47:23.219Z,13.57
2022-12-15T08:49:56.341Z,13.90
2022-12-15T08:52:30.350Z,13.18
2022-12-15T08:54:57.153Z,13.85
2022-12-15T08:57:24.053Z,13.10
2022-12-15T08:59:58.504Z,13.02
2022-12-15T09:02:25.351Z,13.57
2022-12-15T09:04:52.530Z,14.07
2022-12-15T09:07:26.569Z,14.95
2022-12-15T09:09:53.646Z,16.15
2022-12-15T09:12:25.164Z,17.77
2022-12-15T09:15:06.632Z,16.52
2022-12-15T09:17:33.436Z,15.35
2022-12-15T09:20:00.192Z,16.40
2022-12-15T09:22:43.439Z,15.13
2022-12-15T09:25:10.436Z,14.82
2022-12-15T09:27:37.293Z,13.07
2022-12-15T09:30:11.471Z,12.05
2022-12-15T09:32:38.257Z,13.48
2022-12-15T09:35:05.573Z,13.23
2022-12-15T09:37:39.394Z,15.82
2022-12-15T09:40:06.835Z,16.70
2022-12-15T09:42:34.626Z,14.85
2022-12-15T09:45:42.600Z,14.65
2022-12-15T09:48:17.045Z,14.70
2022-12-15T09:50:54.500Z,15.80
2022-12-15T09:53:53.610Z,16.70
2022-12-15T09:56:27.537Z,17.42
2022-12-15T09:59:30.725Z,18.67
2022-12-15T10:02:47.565Z,16.92
2022-12-15T10:08:56.094Z,16.63
2022-12-15T10:11:50.253Z,19.25
2022-12-15T10:14:26.887Z,17.88
2022-12-15T10:17:19.404Z,17.95
2022-12-15T10:19:55.609Z,15.88
2022-12-15T10:22:46.472Z,15.48
2022-12-15T10:25:30.359Z,16.40
2022-12-15T10:28:22.716Z,16.83
2022-12-15T10:31:08.905Z,16.02
2022-12-15T10:33:48.704Z,21.00
2022-12-15T10:36:17.570Z,18.42
2022-12-15T10:38:54.528Z,17.15
2022-12-15T10:41:30.721Z,18.23
2022-12-15T10:43:57.819Z,19.65
2022-12-15T10:46:27.295Z,18.33
2022-12-15T10:49:05.640Z,18.45
2022-12-15T10:51:37.326Z,17.23
2022-12-15T10:54:19.503Z,18.20
2022-12-15T10:57:02.781Z,19.52
2022-12-15T10:59:39.561Z,18.08
2022-12-15T11:02:30.833Z,16.50
2022-12-15T11:05:19.050Z,16.83
2022-12-15T11:08:02.512Z,16.35
2022-12-15T11:10:50.436Z,16.35
2022-12-15T11:13:34.868Z,16.48
2022-12-15T11:16:17.995Z,15.80
2022-12-15T11:18:57.540Z,17.23
2022-12-15T11:21:33.204Z,15.98
2022-12-15T11:24:26.844Z,16.13
2022-12-15T11:27:03.538Z,15.45
2022-12-15T11:30:03.819Z,16.10
2022-12-15T11:32:34.347Z,14.82
2022-12-15T11:35:03.862Z,15.40
2022-12-15T11:37:47.644Z,15.52
2022-12-15T11:40:35.695Z,18.92
2022-12-15T11:43:31.130Z,19.60
2022-12-15T11:46:13.355Z,23.67
2022-12-15T11:48:46.601Z,21.48
2022-12-15T11:51:27.418Z,19.58
2022-12-15T11:54:21.609Z,19.50
2022-12-15T11:56:49.029Z,22.00
2022-12-15T11:59:52.618Z,22.65
2022-12-15T12:02:47.495Z,19.75
2022-12-15T12:05:39.957Z,20.98
2022-12-15T12:08:18.812Z,21.65
2022-12-15T12:10:55.962Z,20.23
2022-12-15T12:13:40.918Z,21.25
2022-12-15T12:16:46.678Z,19.95
2022-12-15T12:19:42.570Z,18.92
2022-12-15T12:23:02.636Z,19.50
2022-12-15T12:25:34.498Z,22.33
2022-12-15T12:28:21.617Z,22.83
2022-12-15T12:30:50.512Z,21.20
2022-12-15T12:33:46.877Z,20.95
2022-12-15T12:36:16.733Z,21.15
2022-12-15T12:38:56.723Z,22.30
2022-12-15T12:41:23.587Z,21.33
2022-12-15T12:44:04.685Z,21.92
2022-12-15T12:46:36.374Z,19.08
2022-12-15T12:49:33.974Z,18.10
2022-12-15T12:52:03.603Z,21.10
2022-12-15T12:54:42.714Z,18.88
2022-12-15T12:57:19.089Z,21.70
2022-12-15T12:59:56.972Z,19.13
2022-12-15T13:02:32.916Z,18.60
2022-12-15T13:05:27.729Z,19.73
2022-12-15T13:08:02.748Z,18.95
2022-12-15T13:10:29.991Z,19.63
2022-12-15T13:13:05.797Z,17.63
2022-12-15T13:15:51.205Z,18.38
2022-12-15T13:18:32.261Z,17.90
2022-12-15T13:21:35.101Z,19.27
2022-12-15T13:24:10.973Z,17.63
2022-12-15T13:26:44.988Z,16.65
2022-12-15T13:29:31.825Z,16.98
2022-12-15T13:32:00.179Z,17.60
2022-12-15T13:34:35.903Z,15.90
2022-12-15T13:37:03.118Z,16.08
2022-12-15T13:39:34.150Z,19.50
2022-12-15T13:45:12.238Z,19.40
2022-12-15T13:47:48.187Z,21.10
2022-12-15T13:50:34.996Z,22.27
2022-12-15T13:53:19.482Z,22.33
2022-12-15T13:56:05.911Z,19.90
2022-12-15T13:58:41.308Z,18.30
2022-12-15T14:01:32.212Z,20.27
2022-12-15T14:04:16.491Z,19.48
2022-12-15T14:07:02.786Z,19.52
2022-12-15T14:09:33.757Z,19.48
2022-12-15T14:12:11.066Z,17.95
2022-12-15T14:14:50.160Z,16.52
2022-12-15T14:17:26.013Z,17.30
2022-12-15T14:19:53.080Z,18.50
2022-12-15T14:22:34.956Z,16.65
2022-12-15T14:25:19.848Z,18.00
2022-12-15T14:27:54.094Z,17.02
2022-12-15T14:30:33.630Z,15.93
2022-12-15T14:33:21.345Z,15.88
2022-12-15T14:35:59.556Z,14.30
2022-12-15T14:38:37.857Z,16.75
2022-12-15T14:41:13.048Z,15.15
2022-12-15T14:43:40.555Z,14.32
2022-12-15T14:46:22.932Z,14.93
2022-12-15T14:51:21.179Z,14.15
2022-12-15T14:53:58.169Z,15.82
2022-12-15T14:56:31.172Z,14.98
2022-12-15T14:59:26.163Z,16.85
2022-12-15T15:02:02.186Z,16.33
2022-12-15T15:04:40.987Z,13.90
2022-12-15T15:07:24.053Z,17.20
2022-12-15T15:09:51.888Z,13.70
2022-12-15T15:12:34.990Z,15.25
2022-12-15T15:15:05.852Z,15.52
2022-12-15T15:17:51.096Z,15.63
2022-12-15T15:20:35.930Z,15.15
2022-12-15T15:23:23.251Z,16.83
2022-12-15T15:26:06.400Z,14.70
2022-12-15T15:28:48.914Z,15.15
2022-12-15T15:31:45.307Z,15.20
2022-12-15T15:34:12.372Z,15.17
2022-12-15T15:36:43.339Z,14.18
2022-12-15T15:39:19.998Z,14.20
2022-12-15T15:41:47.069Z,14.25
2022-12-15T15:44:22.261Z,16.73
2022-12-15T15:46:54.754Z,17.13
2022-12-15T15:49:37.650Z,16.50
2022-12-15T15:52:20.277Z,16.30
2022-12-15T15:54:47.552Z,16.83
2022-12-15T15:57:18.745Z,16.77
2022-12-15T15:59:52.998Z,16.00
2022-12-15T16:02:23.664Z,19.17
2022-12-15T16:04:50.932Z,17.60
2022-12-15T16:07:34.095Z,20.10
2022-12-15T16:10:01.306Z,22.10
2022-12-15T16:12:33.572Z,21.45
2022-12-15T16:17:34.880Z,23.17
2022-12-15T16:20:02.004Z,23.08
2022-12-15T16:22:36.334Z,20.95
2022-12-15T16:25:42.447Z,23.58
2022-12-15T16:28:23.211Z,23.95
2022-12-15T16:30:51.091Z,24.02
2022-12-15T16:33:34.046Z,23.27
2022-12-15T16:36:00.904Z,24.67
2022-12-15T16:38:32.952Z,25.42
2022-12-15T16:41:21.228Z,24.52
2022-12-15T16:43:59.766Z,22.83
2022-12-15T16:46:33.254Z,24.48
2022-12-15T16:49:00.341Z,23.65
2022-12-15T16:51:41.335Z,25.75
2022-12-15T16:54:16.840Z,25.63
2022-12-15T16:56:50.085Z,23.67
2022-12-15T16:59:35.354Z,23.20
2022-12-15T17:02:32.970Z,26.30
2022-12-15T17:05:10.160Z,24.08
2022-12-15T17:07:44.089Z,28.05
2022-12-15T17:10:27.090Z,26.35
2022-12-15T17:12:59.383Z,29.15
2022-12-15T17:18:08.086Z,29.98
2022-12-15T17:20:42.045Z,28.50
2022-12-15T17:23:22.433Z,26.42
2022-12-15T17:28:51.132Z,26.00
2022-12-15T17:31:33.300Z,24.70
2022-12-15T17:34:20.121Z,22.77
2022-12-15T17:36:50.779Z,24.58
2022-12-15T17:39:29.187Z,24.90
2022-12-15T17:42:03.435Z,25.92
2022-12-15T17:44:43.294Z,24.60
2022-12-15T17:47:17.141Z,22.52
2022-12-15T17:49:53.220Z,22.70
2022-12-15T17:52:31.590Z,23.92
2022-12-15T17:55:05.150Z,25.45
2022-12-15T17:57:38.199Z,24.30
2022-12-15T18:00:34.649Z,24.42
2022-12-15T18:03:29.868Z,21.70
2022-12-15T18:06:17.515Z,19.65
2022-12-15T18:09:10.236Z,23.17
2022-12-15T18:11:44.205Z,18.20
2022-12-15T18:14:15.732Z,19.00
2022-12-15T18:16:54.414Z,20.10
2022-12-15T18:19:21.399Z,19.20
2022-12-15T18:21:51.196Z,18.05
2022-12-15T18:24:28.192Z,19.25
2022-12-15T18:27:02.196Z,18.75
2022-12-15T18:29:35.337Z,19.55
2022-12-15T18:32:02.470Z,19.67
2022-12-15T18:34:29.399Z,23.92
2022-12-15T18:37:03.208Z,23.48
2022-12-15T18:39:30.705Z,28.40
2022-12-15T18:42:04.254Z,28.63
2022-12-15T18:44:40.327Z,29.30
2022-12-15T18:47:16.351Z,31.95
2022-12-15T18:49:50.235Z,29.92
2022-12-15T18:52:31.446Z,33.05
2022-12-15T18:55:08.269Z,31.35
2022-12-15T18:57:36.445Z,31.20
2022-12-15T19:00:22.347Z,31.73
2022-12-15T19:02:53.211Z,29.17
2022-12-15T19:05:39.269Z,30.25
2022-12-15T19:08:20.198Z,32.92
2022-12-15T19:11:00.333Z,35.08
2022-12-15T19:13:36.291Z,35.80
2022-12-15T19:16:13.337Z,37.03
2022-12-15T19:19:00.461Z,41.28
2022-12-15T19:22:01.360Z,38.72
2022-12-15T19:24:59.551Z,39.03
2022-12-15T19:27:34.381Z,37.05
2022-12-15T19:30:01.813Z,36.58
2022-12-15T19:32:29.171Z,37.55
2022-12-15T19:35:02.348Z,35.58
2022-12-15T19:38:03.395Z,35.40
2022-12-15T19:40:32.577Z,35.55
2022-12-15T19:43:07.463Z,35.08
2022-12-15T19:45:40.431Z,35.42
2022-12-15T19:48:07.437Z,36.92
2022-12-15T19:50:43.405Z,35.35
2022-12-15T19:53:25.611Z,37.80
2022-12-15T19:56:02.448Z,37.33
2022-12-15T19:58:34.445Z,37.70
2022-12-15T20:01:12.479Z,36.55
2022-12-15T20:03:43.853Z,36.95
2022-12-15T20:06:29.374Z,38.58
2022-12-15T20:09:03.339Z,34.95
2022-12-15T20:11:38.894Z,38.20
2022-12-15T20:14:19.366Z,37.33
2022-12-15T20:16:46.642Z,35.47
2022-12-15T20:19:20.399Z,37.22
2022-12-15T20:21:59.435Z,41.47
2022-12-15T20:24:27.228Z,34.63
2022-12-15T20:26:57.318Z,35.60
2022-12-15T20:29:37.470Z,41.42
2022-12-15T20:32:20.507Z,36.97
2022-12-15T20:34:47.800Z,40.35
2022-12-15T20:37:34.471Z,39.03
2022-12-15T20:40:01.371Z,39.00
2022-12-15T20:42:31.080Z,36.60
2022-12-15T20:45:04.474Z,37.70
2022-12-15T20:47:31.680Z,36.05
2022-12-15T20:49:58.551Z,39.13
2022-12-15T20:52:34.432Z,37.33
2022-12-15T20:55:03.058Z,36.67
2022-12-15T20:57:36.474Z,36.63
2022-12-15T21:00:05.013Z,33.22
2022-12-15T21:02:39.698Z,35.60
2022-12-15T21:05:07.560Z,34.55
2022-12-15T21:07:41.582Z,35.13
2022-12-15T21:10:16.442Z,35.33
2022-12-15T21:12:59.502Z,31.40
2022-12-15T21:15:33.473Z,33.70
2022-12-15T21:18:40.199Z,34.80
2022-12-15T21:20:59.574Z,34.53
2022-12-15T21:23:29.931Z,36.58
2022-12-15T21:26:07.472Z,31.80
2022-12-15T21:28:41.550Z,35.00
2022-12-15T21:31:08.680Z,31.00
2022-12-15T21:33:42.565Z,31.02
2022-12-15T21:36:20.648Z,30.45
2022-12-15T21:38:57.505Z,39.70
2022-12-15T21:41:24.720Z,38.80
2022-12-15T21:43:58.491Z,38.85
2022-12-15T21:46:35.492Z,39.33
2022-12-15T21:49:20.595Z,39.92
2022-12-15T21:51:57.558Z,38.08
2022-12-15T21:54:31.117Z,38.13
2022-12-15T21:57:06.506Z,39.17
2022-12-15T21:59:34.808Z,38.58
2022-12-15T22:02:32.601Z,38.17
2022-12-15T22:05:06.494Z,37.50
2022-12-15T22:07:35.740Z,37.72
2022-12-15T22:10:09.570Z,36.30
2022-12-15T22:12:45.515Z,32.67
2022-12-15T22:15:21.464Z,34.42
2022-12-15T22:17:55.572Z,32.30
2022-12-15T22:20:24.537Z,33.88
2022-12-15T22:22:58.555Z,35.65
2022-12-15T22:25:32.530Z,35.35
2022-12-15T22:28:05.588Z,33.63
2022-12-15T22:30:33.212Z,33.28
2022-12-15T22:33:00.575Z,32.70
2022-12-15T22:35:34.613Z,33.15
2022-12-15T22:38:01.811Z,32.65
2022-12-15T22:40:30.243Z,33.95
2022-12-15T22:43:04.549Z,31.80
2022-12-15T22:45:37.063Z,33.05
2022-12-15T22:48:12.577Z,36.38
2022-12-15T22:50:39.485Z,33.92
2022-12-15T22:53:21.591Z,35.33
2022-12-15T22:55:49.872Z,34.83
2022-12-15T22:58:37.549Z,35.20
2022-12-15T23:01:06.729Z,34.35
2022-12-15T23:03:40.606Z,32.50
2022-12-15T23:06:07.448Z,29.20
2022-12-15T23:08:40.642Z,29.90
2022-12-15T23:11:32.575Z,28.15
2022-12-15T23:14:02.057Z,25.63
2022-12-15T23:16:35.762Z,25.63
2022-12-15T23:19:10.769Z,27.13
2022-12-15T23:21:37.992Z,28.58
2022-12-15T23:24:11.678Z,29.05
2022-12-15T23:26:38.518Z,24.13
2022-12-15T23:29:11.609Z,25.77
2022-12-15T23:31:38.490Z,22.95
2022-12-15T23:34:11.661Z,24.27
2022-12-15T23:36:38.482Z,24.08
2022-12-15T23:39:05.334Z,22.27
2022-12-15T23:41:39.697Z,18.95
2022-12-15T23:44:12.643Z,22.17
2022-12-15T23:46:45.709Z,21.58
2022-12-15T23:49:12.486Z,22.25
2022-12-15T23:51:39.266Z,19.17
2022-12-15T23:54:12.799Z,25.33
2022-12-15T23:56:46.876Z,25.77
2022-12-15T23:59:20.630Z,24.42
